Time;durP1;ratioP1;P1;durP2;ratioP2;P2;SDS_P1;SDS_P2;PMS_P1;PMS_P2;Temp;Humidity;BMP_temperature;BMP_pressure;BME280_temperature;BME280_humidity;BME280_pressure;Samples;Min_cycle;Max_cycle;Signal;HPM_P1;HPM_P2
2022/12/29 00:01:21;;;;;;;8.68;3.25;;;;;;;;;;5012039;28;20038;-81
2022/12/29 00:03:46;;;;;;;10.85;3.20;;;;;;;;;;5010930;28;20084;-82
2022/12/29 00:06:12;;;;;;;8.65;2.90;;;;;;;;;;5012403;28;20117;-82
2022/12/29 00:08:40;;;;;;;9.30;2.80;;;;;;;;;;5007701;28;20406;-82
2022/12/29 00:16:40;;;;;;;10.73;3.00;;;;;;;;;;5012751;28;20850;-82
2022/12/29 00:19:05;;;;;;;10.57;3.17;;;;;;;;;;5051295;28;20040;-82
2022/12/29 00:35:32;;;;;;;10.15;3.20;;;;;;;;;;5033517;28;20366;-82
2022/12/29 00:46:12;;;;;;;11.88;3.33;;;;;;;;;;5035945;28;20029;-82
2022/12/29 00:51:21;;;;;;;10.48;3.67;;;;;;;;;;5051566;28;20408;-82
2022/12/29 00:53:47;;;;;;;10.40;3.67;;;;;;;;;;5033434;28;20032;-82
2022/12/29 00:56:12;;;;;;;9.18;3.63;;;;;;;;;;5033715;28;20040;-82
2022/12/29 00:58:38;;;;;;;9.77;3.30;;;;;;;;;;5040864;28;20055;-82
2022/12/29 01:01:04;;;;;;;9.48;3.80;;;;;;;;;;5033474;28;20037;-83
2022/12/29 01:03:30;;;;;;;8.70;3.20;;;;;;;;;;5017459;28;20170;-82
2022/12/29 01:05:55;;;;;;;9.50;3.17;;;;;;;;;;5050540;28;20551;-82
2022/12/29 01:08:21;;;;;;;9.00;3.25;;;;;;;;;;5044053;28;20028;-83
2022/12/29 01:10:46;;;;;;;13.07;3.42;;;;;;;;;;5035479;28;20036;-82
2022/12/29 01:13:11;;;;;;;8.02;3.00;;;;;;;;;;5033540;28;20480;-83
2022/12/29 01:15:37;;;;;;;13.90;3.67;;;;;;;;;;5015399;28;20496;-82
2022/12/29 01:18:02;;;;;;;9.55;3.90;;;;;;;;;;5050954;28;20068;-83
2022/12/29 01:20:29;;;;;;;9.10;3.60;;;;;;;;;;5019692;28;20564;-82
2022/12/29 01:22:55;;;;;;;10.73;3.90;;;;;;;;;;5032465;28;20120;-83
2022/12/29 01:25:21;;;;;;;9.15;3.45;;;;;;;;;;5032529;28;20127;-82
2022/12/29 01:27:46;;;;;;;9.45;3.67;;;;;;;;;;5032832;28;20120;-82
2022/12/29 01:30:12;;;;;;;9.10;3.47;;;;;;;;;;5059523;28;20119;-83
2022/12/29 01:32:37;;;;;;;11.20;4.05;;;;;;;;;;5037832;28;20029;-83
2022/12/29 01:35:03;;;;;;;7.15;4.10;;;;;;;;;;5025263;28;20047;-82
2022/12/29 01:37:28;;;;;;;10.93;4.65;;;;;;;;;;5033756;28;20124;-83
2022/12/29 01:39:54;;;;;;;11.43;3.50;;;;;;;;;;5026467;28;20534;-82
2022/12/29 01:42:22;;;;;;;9.23;3.72;;;;;;;;;;5061909;28;20039;-82
2022/12/29 01:44:48;;;;;;;11.27;4.25;;;;;;;;;;5028648;28;20040;-82
2022/12/29 01:47:15;;;;;;;11.25;3.78;;;;;;;;;;5062384;28;20411;-82
2022/12/29 01:49:41;;;;;;;13.07;3.90;;;;;;;;;;5045900;28;20040;-82
2022/12/29 01:52:06;;;;;;;8.95;4.00;;;;;;;;;;5049081;28;20025;-82
2022/12/29 01:54:33;;;;;;;10.38;3.95;;;;;;;;;;5029337;28;20055;-82
2022/12/29 01:57:03;;;;;;;9.77;4.07;;;;;;;;;;5044876;28;20119;-82
2022/12/29 01:59:32;;;;;;;11.50;4.18;;;;;;;;;;5036979;28;20068;-82
2022/12/29 02:01:58;;;;;;;11.70;4.20;;;;;;;;;;5043097;28;20139;-82
2022/12/29 02:04:25;;;;;;;10.75;4.30;;;;;;;;;;5032650;28;20140;-81
2022/12/29 02:06:55;;;;;;;12.23;4.25;;;;;;;;;;5032903;28;20548;-81
2022/12/29 02:09:21;;;;;;;9.40;3.70;;;;;;;;;;5032436;28;20045;-82
2022/12/29 02:11:49;;;;;;;7.22;3.88;;;;;;;;;;5019152;28;20448;-82
2022/12/29 02:14:17;;;;;;;11.18;3.90;;;;;;;;;;5036738;28;20058;-82
2022/12/29 02:16:53;;;;;;;10.13;3.65;;;;;;;;;;5003714;28;20392;-82
2022/12/29 02:19:37;;;;;;;11.70;3.40;;;;;;;;;;5019474;28;20068;-82
2022/12/29 02:22:04;;;;;;;12.52;3.78;;;;;;;;;;5035867;28;20061;-82
2022/12/29 02:24:48;;;;;;;14.68;3.88;;;;;;;;;;5019655;28;20124;-82
2022/12/29 02:27:20;;;;;;;8.80;3.70;;;;;;;;;;5035667;28;20037;-82
2022/12/29 02:29:47;;;;;;;12.15;3.90;;;;;;;;;;5020116;28;20033;-82
2022/12/29 02:32:12;;;;;;;10.40;3.88;;;;;;;;;;5036091;28;20567;-82
2022/12/29 02:34:42;;;;;;;9.68;4.25;;;;;;;;;;5036642;28;20423;-83
2022/12/29 02:37:22;;;;;;;14.15;4.28;;;;;;;;;;5026461;28;20364;-82
2022/12/29 02:40:01;;;;;;;11.77;4.22;;;;;;;;;;5024527;28;20381;-82
2022/12/29 02:42:29;;;;;;;12.73;4.10;;;;;;;;;;5023710;28;20033;-82
2022/12/29 02:44:56;;;;;;;10.02;4.00;;;;;;;;;;5035247;28;20551;-83
2022/12/29 02:47:30;;;;;;;7.82;3.63;;;;;;;;;;5018264;28;20030;-83
2022/12/29 02:49:55;;;;;;;10.73;3.85;;;;;;;;;;5052676;28;20075;-83
2022/12/29 02:55:15;;;;;;;9.15;4.00;;;;;;;;;;5029266;28;20065;-81
2022/12/29 02:57:42;;;;;;;8.25;3.22;;;;;;;;;;5036368;28;20060;-83
2022/12/29 03:00:08;;;;;;;9.50;3.97;;;;;;;;;;5015922;28;20041;-81
2022/12/29 03:02:47;;;;;;;9.63;4.03;;;;;;;;;;5002655;28;20028;-82
2022/12/29 03:05:32;;;;;;;11.52;4.20;;;;;;;;;;5015060;28;20111;-82
2022/12/29 03:08:04;;;;;;;12.82;3.88;;;;;;;;;;5040155;28;20033;-82
2022/12/29 03:10:48;;;;;;;11.75;3.90;;;;;;;;;;5018722;28;20476;-82
2022/12/29 03:16:05;;;;;;;9.75;3.50;;;;;;;;;;5024124;28;20029;-82
2022/12/29 03:18:50;;;;;;;8.60;3.55;;;;;;;;;;5018682;28;20060;-82
2022/12/29 03:21:19;;;;;;;10.82;3.90;;;;;;;;;;5052931;28;20041;-82
2022/12/29 03:23:47;;;;;;;8.85;3.65;;;;;;;;;;5002459;28;20029;-82
2022/12/29 03:26:13;;;;;;;9.48;3.55;;;;;;;;;;5015802;28;20041;-82
2022/12/29 03:28:40;;;;;;;7.57;3.47;;;;;;;;;;5034474;28;20029;-83
2022/12/29 03:31:07;;;;;;;14.13;4.13;;;;;;;;;;5012675;28;20502;-83
2022/12/29 03:33:33;;;;;;;11.10;4.03;;;;;;;;;;5020065;28;20107;-82
2022/12/29 03:36:02;;;;;;;10.50;4.28;;;;;;;;;;5029285;28;20056;-82
2022/12/29 03:38:29;;;;;;;11.50;4.13;;;;;;;;;;5019936;28;20029;-82
2022/12/29 03:40:58;;;;;;;9.60;4.38;;;;;;;;;;5053308;28;20093;-83
2022/12/29 03:43:25;;;;;;;9.20;4.43;;;;;;;;;;5026614;28;20404;-82
2022/12/29 03:45:51;;;;;;;13.30;4.97;;;;;;;;;;5053492;28;20044;-82
2022/12/29 03:51:02;;;;;;;10.45;4.60;;;;;;;;;;5035452;28;20029;-81
2022/12/29 03:53:27;;;;;;;9.52;4.40;;;;;;;;;;5052759;28;20033;-82
2022/12/29 03:58:37;;;;;;;11.32;4.95;;;;;;;;;;5052533;28;20196;-80
2022/12/29 04:01:07;;;;;;;11.50;4.65;;;;;;;;;;5002731;28;20480;-83
2022/12/29 04:03:36;;;;;;;13.20;5.28;;;;;;;;;;5035602;28;20047;-81
2022/12/29 04:08:56;;;;;;;10.15;4.57;;;;;;;;;;5039627;28;20033;-82
2022/12/29 04:11:22;;;;;;;12.10;5.15;;;;;;;;;;5024349;28;20033;-83
2022/12/29 04:13:49;;;;;;;14.68;5.03;;;;;;;;;;5017578;28;20400;-81
2022/12/29 04:16:19;;;;;;;14.27;5.63;;;;;;;;;;5020923;28;20040;-81
2022/12/29 04:18:44;;;;;;;14.85;5.70;;;;;;;;;;5033388;28;20500;-82
2022/12/29 04:21:11;;;;;;;13.90;5.00;;;;;;;;;;5016666;28;20393;-83
2022/12/29 04:23:39;;;;;;;12.02;5.35;;;;;;;;;;5048000;28;20150;-82
2022/12/29 04:26:07;;;;;;;16.88;5.88;;;;;;;;;;5033159;28;20041;-83
2022/12/29 04:28:34;;;;;;;11.80;5.50;;;;;;;;;;5040443;28;20560;-82
2022/12/29 04:31:29;;;;;;;13.38;6.13;;;;;;;;;;5040616;28;20025;-82
2022/12/29 04:33:57;;;;;;;13.68;5.70;;;;;;;;;;5019471;28;20044;-81
2022/12/29 04:36:23;;;;;;;12.23;5.65;;;;;;;;;;5040234;28;20033;-81
2022/12/29 04:38:48;;;;;;;13.32;5.75;;;;;;;;;;5033608;28;20029;-81
2022/12/29 04:41:14;;;;;;;13.75;6.28;;;;;;;;;;5036641;28;20048;-82
2022/12/29 04:43:39;;;;;;;12.45;6.22;;;;;;;;;;5042113;28;20519;-82
2022/12/29 04:46:25;;;;;;;15.52;6.57;;;;;;;;;;5013779;28;20037;-81
2022/12/29 04:52:23;;;;;;;13.70;6.30;;;;;;;;;;5056950;28;20043;-82
2022/12/29 04:54:48;;;;;;;9.57;5.82;;;;;;;;;;5033014;28;20411;-82
2022/12/29 04:57:18;;;;;;;14.20;6.82;;;;;;;;;;5018993;28;20029;-83
2022/12/29 04:59:48;;;;;;;14.52;6.10;;;;;;;;;;5032362;28;20087;-82
2022/12/29 05:02:14;;;;;;;11.88;6.45;;;;;;;;;;5017177;28;20760;-81
2022/12/29 05:07:25;;;;;;;18.33;6.93;;;;;;;;;;5033499;28;20025;-83
2022/12/29 05:09:52;;;;;;;11.98;6.47;;;;;;;;;;5034455;28;20040;-84
2022/12/29 05:12:18;;;;;;;15.35;6.97;;;;;;;;;;5045549;28;20032;-84
2022/12/29 05:14:58;;;;;;;13.73;6.57;;;;;;;;;;5040383;28;20162;-83
2022/12/29 05:17:24;;;;;;;14.82;7.25;;;;;;;;;;5035994;28;20053;-82
2022/12/29 05:19:49;;;;;;;14.73;7.20;;;;;;;;;;5046564;28;20032;-83
2022/12/29 05:22:15;;;;;;;14.43;7.03;;;;;;;;;;5037664;28;20423;-84
2022/12/29 05:27:25;;;;;;;11.77;7.45;;;;;;;;;;5034667;28;20064;-84
2022/12/29 05:30:18;;;;;;;12.90;6.70;;;;;;;;;;5022205;28;20115;-82
2022/12/29 05:32:44;;;;;;;13.30;6.90;;;;;;;;;;5019068;28;20482;-83
2022/12/29 05:35:10;;;;;;;13.02;6.45;;;;;;;;;;5033561;28;20027;-82
2022/12/29 05:37:36;;;;;;;16.05;6.97;;;;;;;;;;5033214;28;20471;-83
2022/12/29 05:40:02;;;;;;;13.38;6.57;;;;;;;;;;5018765;28;20123;-82
2022/12/29 05:42:28;;;;;;;12.57;6.70;;;;;;;;;;5034418;28;20571;-83
2022/12/29 05:45:12;;;;;;;11.68;6.22;;;;;;;;;;5052422;28;20027;-82
2022/12/29 05:48:01;;;;;;;11.23;6.63;;;;;;;;;;5026859;28;20037;-82
2022/12/29 05:51:01;;;;;;;15.23;8.02;;;;;;;;;;5039021;28;20102;-83
2022/12/29 05:53:36;;;;;;;15.30;6.97;;;;;;;;;;5033822;28;20037;-83
2022/12/29 05:56:02;;;;;;;15.02;7.28;;;;;;;;;;5059330;28;20404;-83
2022/12/29 05:58:27;;;;;;;14.15;7.07;;;;;;;;;;5037415;28;20518;-83
2022/12/29 06:03:37;;;;;;;13.88;7.53;;;;;;;;;;5037136;28;20036;-84
2022/12/29 06:06:03;;;;;;;13.38;6.82;;;;;;;;;;5036693;28;20021;-82
2022/12/29 06:08:29;;;;;;;14.70;8.07;;;;;;;;;;5036684;28;20041;-82
2022/12/29 06:10:54;;;;;;;13.07;7.18;;;;;;;;;;5036408;28;20480;-82
2022/12/29 06:13:20;;;;;;;13.80;7.70;;;;;;;;;;5035552;28;20056;-83
2022/12/29 06:15:48;;;;;;;15.02;7.40;;;;;;;;;;5036055;28;20024;-83
2022/12/29 06:18:15;;;;;;;11.57;7.53;;;;;;;;;;5035836;28;20114;-84
2022/12/29 06:20:40;;;;;;;11.10;6.82;;;;;;;;;;5017198;28;20034;-83
2022/12/29 06:23:07;;;;;;;14.70;7.65;;;;;;;;;;5036768;28;20036;-83
2022/12/29 06:25:33;;;;;;;12.48;7.55;;;;;;;;;;5038224;28;20029;-83
2022/12/29 06:27:59;;;;;;;14.75;7.57;;;;;;;;;;5037481;28;20052;-82
2022/12/29 06:30:24;;;;;;;13.45;7.30;;;;;;;;;;5040205;28;20021;-84
2022/12/29 06:32:51;;;;;;;14.02;7.55;;;;;;;;;;5056786;28;20064;-84
2022/12/29 06:35:18;;;;;;;14.02;7.18;;;;;;;;;;5054123;28;20033;-84
2022/12/29 06:37:46;;;;;;;14.05;7.40;;;;;;;;;;5042818;28;20040;-84
2022/12/29 06:40:12;;;;;;;12.88;7.38;;;;;;;;;;5047043;28;20016;-83
2022/12/29 06:42:54;;;;;;;15.50;8.45;;;;;;;;;;5044429;28;20036;-83
2022/12/29 06:45:34;;;;;;;19.20;8.90;;;;;;;;;;5048869;28;20036;-84
2022/12/29 06:48:00;;;;;;;15.80;7.90;;;;;;;;;;5064915;28;20047;-83
2022/12/29 06:50:25;;;;;;;14.52;7.60;;;;;;;;;;5043644;28;20044;-84
2022/12/29 06:52:51;;;;;;;16.58;7.95;;;;;;;;;;5057589;28;20056;-84
2022/12/29 06:55:16;;;;;;;14.80;7.95;;;;;;;;;;5061669;28;20040;-84
2022/12/29 06:57:42;;;;;;;17.10;7.88;;;;;;;;;;5064315;28;20043;-85
2022/12/29 07:00:08;;;;;;;14.50;7.85;;;;;;;;;;5034107;28;20123;-83
2022/12/29 07:02:33;;;;;;;15.38;7.85;;;;;;;;;;5051625;28;20040;-83
2022/12/29 07:04:59;;;;;;;17.00;7.80;;;;;;;;;;5035222;28;20056;-84
2022/12/29 07:07:24;;;;;;;13.40;7.55;;;;;;;;;;5053371;28;20052;-83
2022/12/29 07:09:50;;;;;;;15.60;8.70;;;;;;;;;;5016518;28;20040;-83
2022/12/29 07:12:15;;;;;;;16.77;9.07;;;;;;;;;;5032469;28;20025;-83
2022/12/29 07:14:40;;;;;;;14.93;8.85;;;;;;;;;;5035402;28;20039;-83
2022/12/29 07:17:06;;;;;;;20.85;8.55;;;;;;;;;;5035362;28;20496;-83
2022/12/29 07:19:32;;;;;;;16.77;8.85;;;;;;;;;;5053583;28;20563;-84
2022/12/29 07:21:57;;;;;;;16.08;8.88;;;;;;;;;;5053443;28;20040;-84
2022/12/29 07:24:25;;;;;;;17.27;8.88;;;;;;;;;;5053007;28;20037;-84
2022/12/29 07:26:51;;;;;;;18.27;8.85;;;;;;;;;;5035971;28;20064;-84
2022/12/29 07:29:16;;;;;;;14.70;10.32;;;;;;;;;;5052981;28;20063;-82
2022/12/29 07:31:42;;;;;;;17.00;9.65;;;;;;;;;;5052777;28;20025;-83
2022/12/29 07:34:08;;;;;;;20.42;10.52;;;;;;;;;;5053452;28;20052;-83
2022/12/29 07:39:17;;;;;;;17.60;9.60;;;;;;;;;;5052303;28;19917;-83
2022/12/29 07:41:43;;;;;;;15.90;9.40;;;;;;;;;;5042324;28;20098;-84
2022/12/29 07:44:15;;;;;;;17.13;9.68;;;;;;;;;;5033776;28;20527;-84
2022/12/29 07:47:03;;;;;;;17.88;9.20;;;;;;;;;;5027056;28;20053;-82
2022/12/29 07:49:29;;;;;;;13.95;9.25;;;;;;;;;;5052421;28;20037;-83
2022/12/29 07:51:54;;;;;;;13.13;8.00;;;;;;;;;;5051817;28;20033;-83
2022/12/29 07:54:20;;;;;;;15.57;9.13;;;;;;;;;;5018452;28;20029;-84
2022/12/29 07:56:45;;;;;;;16.05;9.73;;;;;;;;;;5034378;28;20074;-82
2022/12/29 07:59:11;;;;;;;15.50;9.05;;;;;;;;;;5052556;28;20059;-83
2022/12/29 08:01:37;;;;;;;18.88;9.65;;;;;;;;;;5033994;28;20033;-83
2022/12/29 08:04:03;;;;;;;17.42;9.70;;;;;;;;;;5036023;28;20040;-83
2022/12/29 08:06:29;;;;;;;14.13;9.40;;;;;;;;;;5035353;28;20029;-83
2022/12/29 08:08:56;;;;;;;15.32;9.93;;;;;;;;;;5051226;28;20033;-83
2022/12/29 08:11:22;;;;;;;18.55;10.25;;;;;;;;;;5017661;28;20406;-82
2022/12/29 08:13:47;;;;;;;17.30;10.73;;;;;;;;;;5034358;28;20028;-83
2022/12/29 08:16:13;;;;;;;16.83;10.18;;;;;;;;;;5052186;28;20024;-83
2022/12/29 08:18:38;;;;;;;18.52;10.38;;;;;;;;;;5051742;28;20051;-84
2022/12/29 08:21:04;;;;;;;19.80;10.70;;;;;;;;;;5033993;28;20045;-82
2022/12/29 08:23:29;;;;;;;20.25;11.38;;;;;;;;;;5033995;28;20024;-83
2022/12/29 08:25:58;;;;;;;17.50;11.20;;;;;;;;;;5052378;28;20129;-82
2022/12/29 08:28:24;;;;;;;17.40;10.80;;;;;;;;;;5018489;28;20040;-83
2022/12/29 08:30:49;;;;;;;19.23;11.10;;;;;;;;;;5052886;28;20894;-83
2022/12/29 08:33:15;;;;;;;19.15;10.93;;;;;;;;;;5033723;28;20033;-83
2022/12/29 08:35:40;;;;;;;20.83;11.27;;;;;;;;;;5051989;28;20040;-83
2022/12/29 08:38:05;;;;;;;16.73;10.27;;;;;;;;;;5051798;28;20432;-83
2022/12/29 08:43:15;;;;;;;21.70;11.50;;;;;;;;;;5051856;28;20083;-83
2022/12/29 08:45:41;;;;;;;17.70;10.40;;;;;;;;;;5051994;28;20064;-83
2022/12/29 08:48:06;;;;;;;23.77;12.38;;;;;;;;;;5034133;28;20515;-82
2022/12/29 08:50:32;;;;;;;21.83;12.45;;;;;;;;;;5033892;28;20458;-82
2022/12/29 08:52:57;;;;;;;20.30;12.02;;;;;;;;;;5052880;28;20029;-82
2022/12/29 08:55:23;;;;;;;20.30;12.77;;;;;;;;;;5034293;28;20035;-82
2022/12/29 08:57:48;;;;;;;20.92;12.65;;;;;;;;;;5032783;28;20033;-82
2022/12/29 09:00:17;;;;;;;23.98;13.18;;;;;;;;;;5013518;28;20132;-82
2022/12/29 09:02:43;;;;;;;23.10;12.48;;;;;;;;;;5050334;28;20243;-82
2022/12/29 09:05:09;;;;;;;22.45;12.70;;;;;;;;;;5033605;28;20029;-83
2022/12/29 09:10:19;;;;;;;23.77;12.40;;;;;;;;;;5052323;28;19999;-83
2022/12/29 09:12:44;;;;;;;20.52;12.35;;;;;;;;;;5033773;28;20112;-83
2022/12/29 09:15:10;;;;;;;18.50;11.85;;;;;;;;;;5054355;28;20037;-83
2022/12/29 09:17:45;;;;;;;22.77;12.77;;;;;;;;;;5058211;28;20048;-83
2022/12/29 09:20:11;;;;;;;20.67;12.05;;;;;;;;;;5026160;28;20045;-82
2022/12/29 09:22:36;;;;;;;22.67;13.27;;;;;;;;;;5043129;28;20029;-84
2022/12/29 09:25:02;;;;;;;23.02;12.77;;;;;;;;;;5043425;28;20393;-82
2022/12/29 09:27:28;;;;;;;19.45;11.50;;;;;;;;;;5045102;28;20032;-83
2022/12/29 09:32:37;;;;;;;17.58;11.40;;;;;;;;;;5045217;28;20037;-83
2022/12/29 09:35:03;;;;;;;17.98;11.05;;;;;;;;;;5046020;28;20074;-82
2022/12/29 09:37:29;;;;;;;17.30;11.30;;;;;;;;;;5041871;28;20095;-83
2022/12/29 09:39:54;;;;;;;19.48;11.88;;;;;;;;;;5046316;28;20024;-83
2022/12/29 09:42:35;;;;;;;17.10;11.32;;;;;;;;;;5044127;28;20546;-82
2022/12/29 09:45:10;;;;;;;22.00;12.68;;;;;;;;;;5065873;28;20093;-83
2022/12/29 09:47:35;;;;;;;21.40;13.18;;;;;;;;;;5062207;28;20491;-82
2022/12/29 09:50:04;;;;;;;20.15;12.32;;;;;;;;;;5035104;28;20150;-83
2022/12/29 09:52:31;;;;;;;22.80;13.25;;;;;;;;;;5047962;28;20040;-83
2022/12/29 09:55:19;;;;;;;17.45;11.20;;;;;;;;;;5035337;28;20094;-83
2022/12/29 09:57:46;;;;;;;17.45;11.35;;;;;;;;;;5066505;28;20036;-83
2022/12/29 10:00:13;;;;;;;18.02;10.85;;;;;;;;;;5040588;28;20077;-82
2022/12/29 10:03:02;;;;;;;16.67;11.15;;;;;;;;;;5036437;28;20059;-82
2022/12/29 10:08:58;;;;;;;15.63;10.68;;;;;;;;;;5043015;28;20091;-83
2022/12/29 10:11:24;;;;;;;18.45;10.32;;;;;;;;;;5054399;28;20043;-83
2022/12/29 10:13:58;;;;;;;16.23;10.85;;;;;;;;;;5055659;28;20103;-82
2022/12/29 10:19:29;;;;;;;19.17;11.65;;;;;;;;;;5055869;28;20036;-84
2022/12/29 10:22:00;;;;;;;22.08;11.95;;;;;;;;;;5059788;28;20043;-83
2022/12/29 10:29:55;;;;;;;19.38;10.93;;;;;;;;;;5053939;28;20400;-83
2022/12/29 10:32:20;;;;;;;18.50;10.40;;;;;;;;;;5036124;28;20040;-84
2022/12/29 10:34:47;;;;;;;17.83;10.70;;;;;;;;;;5053633;28;20043;-84
2022/12/29 10:37:21;;;;;;;15.10;10.40;;;;;;;;;;5052840;28;20029;-83
2022/12/29 10:39:53;;;;;;;18.77;10.95;;;;;;;;;;5053089;28;20037;-84
2022/12/29 10:45:03;;;;;;;20.60;11.23;;;;;;;;;;5035061;28;20048;-83
2022/12/29 10:47:30;;;;;;;17.27;9.65;;;;;;;;;;5018497;28;20025;-84
2022/12/29 10:49:55;;;;;;;;;;;;;;;;;;5035058;28;20032;-83
2022/12/29 10:52:20;;;;;;;16.70;10.57;;;;;;;;;;5052900;28;19920;-83
2022/12/29 10:54:46;;;;;;;18.27;10.90;;;;;;;;;;5034781;28;20033;-84
2022/12/29 10:57:24;;;;;;;18.60;10.80;;;;;;;;;;5052644;28;20511;-83
2022/12/29 11:02:45;;;;;;;16.20;10.82;;;;;;;;;;5052230;28;20063;-84
2022/12/29 11:05:11;;;;;;;18.15;10.80;;;;;;;;;;5034885;28;20041;-84
2022/12/29 11:07:36;;;;;;;16.27;10.93;;;;;;;;;;5053155;28;20428;-82
2022/12/29 11:10:21;;;;;;;17.80;10.70;;;;;;;;;;5052390;28;20040;-83
2022/12/29 11:13:25;;;;;;;19.08;11.63;;;;;;;;;;5035039;28;20115;-83
2022/12/29 11:15:51;;;;;;;16.52;10.02;;;;;;;;;;4951613;29;20099;-83
2022/12/29 11:18:20;;;;;;;20.38;10.55;;;;;;;;;;4952038;29;20444;-83
2022/12/29 11:20:46;;;;;;;19.77;11.23;;;;;;;;;;5001370;28;20502;-81
2022/12/29 11:23:25;;;;;;;17.60;10.65;;;;;;;;;;5035368;28;20058;-83
2022/12/29 11:26:08;;;;;;;16.77;11.15;;;;;;;;;;5024399;28;20041;-82
2022/12/29 11:28:33;;;;;;;21.75;11.82;;;;;;;;;;5034531;28;20029;-83
2022/12/29 11:30:59;;;;;;;19.00;11.65;;;;;;;;;;5034844;28;20439;-83
2022/12/29 11:33:25;;;;;;;;;;;;;;;;;;5034840;28;20041;-83
2022/12/29 11:35:50;;;;;;;17.25;11.05;;;;;;;;;;5052989;28;20327;-82
2022/12/29 11:38:20;;;;;;;19.83;11.00;;;;;;;;;;5035870;28;20032;-84
2022/12/29 11:40:45;;;;;;;20.45;12.25;;;;;;;;;;5034964;28;20048;-84
2022/12/29 11:43:17;;;;;;;20.45;12.07;;;;;;;;;;5033419;28;20510;-84
2022/12/29 11:45:44;;;;;;;20.80;12.20;;;;;;;;;;5034749;28;20037;-83
2022/12/29 11:48:19;;;;;;;22.58;10.80;;;;;;;;;;5038874;28;20021;-82
2022/12/29 11:50:50;;;;;;;17.38;11.27;;;;;;;;;;5036057;28;20500;-84
2022/12/29 11:53:18;;;;;;;17.38;12.10;;;;;;;;;;5034878;28;20060;-83
2022/12/29 11:55:50;;;;;;;17.75;11.00;;;;;;;;;;5054218;28;20503;-83
2022/12/29 11:58:16;;;;;;;17.45;11.45;;;;;;;;;;5035995;28;20036;-83
2022/12/29 12:00:41;;;;;;;19.35;11.70;;;;;;;;;;5052297;28;20476;-83
2022/12/29 12:03:10;;;;;;;18.38;11.45;;;;;;;;;;5014684;28;20066;-83
2022/12/29 12:08:33;;;;;;;24.38;10.98;;;;;;;;;;5052345;28;20097;-84
2022/12/29 12:11:01;;;;;;;17.35;10.48;;;;;;;;;;5034430;28;20024;-84
2022/12/29 12:13:33;;;;;;;17.55;11.38;;;;;;;;;;5017530;28;20025;-83
2022/12/29 12:16:08;;;;;;;16.77;10.73;;;;;;;;;;5013823;28;20048;-83
2022/12/29 12:18:36;;;;;;;22.35;11.65;;;;;;;;;;5038822;28;20052;-83
2022/12/29 12:21:07;;;;;;;16.88;11.02;;;;;;;;;;5050697;28;20037;-85
2022/12/29 12:23:39;;;;;;;17.73;10.73;;;;;;;;;;5055712;28;20098;-84
2022/12/29 12:26:23;;;;;;;14.60;10.00;;;;;;;;;;5052133;28;20179;-83
2022/12/29 12:28:49;;;;;;;16.23;10.50;;;;;;;;;;5052517;28;20033;-83
2022/12/29 12:31:24;;;;;;;17.27;10.77;;;;;;;;;;5054246;28;20040;-83
2022/12/29 12:36:49;;;;;;;16.33;10.20;;;;;;;;;;5036578;28;20033;-83
2022/12/29 12:39:33;;;;;;;18.05;11.00;;;;;;;;;;5034240;28;20052;-85
2022/12/29 12:42:19;;;;;;;19.00;10.57;;;;;;;;;;5051101;28;20060;-82
2022/12/29 12:44:56;;;;;;;17.50;10.75;;;;;;;;;;5027010;28;20041;-82
2022/12/29 12:47:25;;;;;;;17.10;11.05;;;;;;;;;;5051605;28;20068;-83
2022/12/29 12:49:50;;;;;;;17.77;11.25;;;;;;;;;;5051377;28;20083;-84
2022/12/29 12:52:19;;;;;;;21.10;11.82;;;;;;;;;;5044060;28;20032;-83
2022/12/29 12:54:45;;;;;;;18.65;11.18;;;;;;;;;;5065192;28;20029;-83
2022/12/29 12:57:13;;;;;;;18.95;12.20;;;;;;;;;;5064513;28;20039;-83
2022/12/29 12:59:41;;;;;;;19.88;12.18;;;;;;;;;;5062296;28;20388;-83
2022/12/29 13:02:19;;;;;;;20.98;13.80;;;;;;;;;;5052353;28;20057;-84
2022/12/29 13:05:04;;;;;;;21.33;12.43;;;;;;;;;;5040777;28;20029;-84
2022/12/29 13:07:30;;;;;;;21.33;12.82;;;;;;;;;;5052832;28;20117;-83
2022/12/29 13:10:12;;;;;;;25.15;13.30;;;;;;;;;;5042067;28;20103;-83
2022/12/29 13:12:49;;;;;;;21.98;13.43;;;;;;;;;;5049863;28;20032;-81
2022/12/29 13:15:26;;;;;;;19.52;12.27;;;;;;;;;;5068027;28;20043;-83
2022/12/29 13:17:54;;;;;;;20.80;12.98;;;;;;;;;;5029864;28;20401;-83
2022/12/29 13:20:36;;;;;;;19.60;12.85;;;;;;;;;;5055313;28;20504;-84
2022/12/29 13:23:05;;;;;;;20.48;12.60;;;;;;;;;;5059483;28;20484;-83
2022/12/29 13:25:39;;;;;;;25.20;15.70;;;;;;;;;;5035750;28;20491;-85
2022/12/29 13:28:04;;;;;;;17.27;11.85;;;;;;;;;;5050965;28;20123;-84
2022/12/29 13:30:34;;;;;;;18.33;11.43;;;;;;;;;;5067946;28;20474;-83
2022/12/29 13:33:00;;;;;;;18.17;10.88;;;;;;;;;;5052444;28;20035;-84
2022/12/29 13:35:31;;;;;;;19.13;12.15;;;;;;;;;;5050285;28;20032;-83
2022/12/29 13:37:59;;;;;;;20.98;12.57;;;;;;;;;;5051192;28;20044;-82
2022/12/29 13:40:25;;;;;;;20.17;12.43;;;;;;;;;;5045153;28;20036;-83
2022/12/29 13:42:51;;;;;;;18.83;11.05;;;;;;;;;;5045513;28;20041;-82
2022/12/29 13:45:18;;;;;;;16.67;10.82;;;;;;;;;;5037768;28;20032;-83
2022/12/29 13:47:46;;;;;;;16.70;11.00;;;;;;;;;;5051580;28;20041;-83
2022/12/29 13:50:21;;;;;;;19.48;12.02;;;;;;;;;;5035188;28;20082;-84
2022/12/29 13:53:02;;;;;;;19.55;11.88;;;;;;;;;;5056240;28;20040;-84
2022/12/29 13:55:29;;;;;;;15.95;10.90;;;;;;;;;;5017133;28;20045;-83
2022/12/29 13:58:13;;;;;;;20.58;11.55;;;;;;;;;;5017032;28;20028;-83
2022/12/29 14:00:48;;;;;;;18.05;11.50;;;;;;;;;;5049969;28;20059;-83
2022/12/29 14:03:32;;;;;;;15.65;10.95;;;;;;;;;;5016416;28;20056;-83
2022/12/29 14:06:04;;;;;;;16.30;10.73;;;;;;;;;;5050143;28;20424;-83
2022/12/29 14:08:29;;;;;;;20.52;12.27;;;;;;;;;;5053463;28;20033;-83
2022/12/29 14:10:55;;;;;;;16.65;11.70;;;;;;;;;;5036645;28;20032;-83
2022/12/29 14:13:22;;;;;;;17.58;11.43;;;;;;;;;;5035884;28;20048;-83
2022/12/29 14:15:51;;;;;;;16.30;11.23;;;;;;;;;;5035682;28;20021;-82
2022/12/29 14:18:24;;;;;;;15.85;10.77;;;;;;;;;;5020228;28;20424;-82
2022/12/29 14:20:56;;;;;;;18.50;10.40;;;;;;;;;;5036208;28;20340;-84
2022/12/29 14:23:37;;;;;;;16.67;10.55;;;;;;;;;;5020341;28;20391;-83
2022/12/29 14:26:05;;;;;;;15.15;10.68;;;;;;;;;;5043212;28;20072;-82
2022/12/29 14:31:18;;;;;;;20.42;11.38;;;;;;;;;;5045537;28;20386;-82
2022/12/29 14:34:03;;;;;;;18.30;11.60;;;;;;;;;;5054230;28;20099;-83
2022/12/29 14:36:37;;;;;;;17.35;11.35;;;;;;;;;;5035083;28;20033;-82
2022/12/29 14:39:03;;;;;;;21.75;13.45;;;;;;;;;;5054261;28;20541;-83
2022/12/29 14:41:30;;;;;;;21.70;13.50;;;;;;;;;;5020544;28;20115;-83
2022/12/29 14:44:00;;;;;;;23.10;13.85;;;;;;;;;;5054931;28;20610;-85
2022/12/29 14:46:25;;;;;;;24.23;14.65;;;;;;;;;;5053571;28;20536;-83
2022/12/29 14:48:55;;;;;;;22.30;14.32;;;;;;;;;;5054081;28;20116;-84
2022/12/29 14:51:31;;;;;;;22.23;13.70;;;;;;;;;;5020572;28;20033;-85
2022/12/29 14:53:56;;;;;;;20.95;13.38;;;;;;;;;;5054574;28;20090;-83
2022/12/29 14:59:12;;;;;;;17.55;11.50;;;;;;;;;;5056906;28;20041;-83
2022/12/29 15:01:48;;;;;;;20.98;12.35;;;;;;;;;;5035167;28;20077;-84
2022/12/29 15:04:15;;;;;;;16.25;11.18;;;;;;;;;;5054506;28;20142;-81
2022/12/29 15:06:41;;;;;;;18.27;12.07;;;;;;;;;;5036652;28;20044;-83
2022/12/29 15:09:36;;;;;;;19.73;11.90;;;;;;;;;;5035265;28;20029;-83
2022/12/29 15:14:50;;;;;;;18.63;11.60;;;;;;;;;;5014030;28;20407;-82
2022/12/29 15:17:25;;;;;;;21.77;12.27;;;;;;;;;;5052451;28;20133;-84
2022/12/29 15:19:53;;;;;;;19.95;12.15;;;;;;;;;;5054998;28;20484;-83
2022/12/29 15:22:19;;;;;;;20.85;12.48;;;;;;;;;;5018654;28;20056;-84
2022/12/29 15:24:45;;;;;;;18.30;12.48;;;;;;;;;;5022670;28;20454;-82
2022/12/29 15:27:15;;;;;;;20.60;12.50;;;;;;;;;;5021704;28;20115;-84
2022/12/29 15:29:42;;;;;;;23.25;14.75;;;;;;;;;;5056359;28;20036;-80
2022/12/29 15:32:20;;;;;;;21.23;12.88;;;;;;;;;;5036650;28;20042;-83
2022/12/29 15:37:33;;;;;;;23.00;14.45;;;;;;;;;;5044189;28;20033;-84
2022/12/29 15:39:58;;;;;;;22.55;13.35;;;;;;;;;;5041086;28;20033;-82
2022/12/29 15:42:24;;;;;;;20.08;13.48;;;;;;;;;;5040312;28;20523;-85
2022/12/29 15:44:50;;;;;;;23.00;14.05;;;;;;;;;;5046577;28;20021;-82
2022/12/29 15:47:25;;;;;;;18.95;13.20;;;;;;;;;;5041266;28;20506;-83
2022/12/29 15:49:54;;;;;;;21.75;13.90;;;;;;;;;;5035597;28;20044;-78
2022/12/29 15:52:19;;;;;;;;;;;;;;;;;;5043005;28;20105;-81
2022/12/29 15:54:44;;;;;;;24.20;13.50;;;;;;;;;;5064153;28;20010;-79
2022/12/29 15:57:23;;;;;;;23.55;14.43;;;;;;;;;;5042342;28;20496;-81
2022/12/29 15:59:48;;;;;;;28.33;14.40;;;;;;;;;;5038982;28;20447;-79
2022/12/29 16:02:14;;;;;;;23.17;13.82;;;;;;;;;;5017955;28;20021;-79
2022/12/29 16:07:27;;;;;;;21.67;13.82;;;;;;;;;;5022142;28;20213;-80
2022/12/29 16:09:57;;;;;;;22.63;13.57;;;;;;;;;;5036220;28;20040;-81
2022/12/29 16:12:24;;;;;;;24.90;14.63;;;;;;;;;;5038849;28;20115;-82
2022/12/29 16:15:05;;;;;;;27.15;15.48;;;;;;;;;;5036295;28;20025;-82
2022/12/29 16:17:31;;;;;;;23.67;14.38;;;;;;;;;;5058617;28;20056;-79
2022/12/29 16:19:58;;;;;;;22.45;14.13;;;;;;;;;;5020408;28;20033;-80
2022/12/29 16:22:28;;;;;;;21.08;13.25;;;;;;;;;;5040295;28;20036;-80